createdAt,value
2019-02-19T00:00:32.794Z,19.67
2019-02-19T00:03:06.461Z,20.00
2019-02-19T00:05:40.264Z,19.90
2019-02-19T00:08:13.661Z,19.50
2019-02-19T00:10:46.754Z,19.07
2019-02-19T00:13:19.931Z,20.20
2019-02-19T00:26:29.014Z,17.37
2019-02-19T00:29:21.078Z,19.17
2019-02-19T00:32:13.674Z,19.07
2019-02-19T00:34:47.132Z,18.13
2019-02-19T00:37:20.926Z,18.47
2019-02-19T00:39:54.620Z,19.20
2019-02-19T00:42:28.362Z,18.57
2019-02-19T00:45:01.801Z,18.87
2019-02-19T00:47:36.184Z,20.20
2019-02-19T00:50:27.697Z,20.00
2019-02-19T00:53:18.282Z,19.67
2019-02-19T00:55:51.568Z,19.30
2019-02-19T00:58:25.411Z,21.07
2019-02-19T01:00:59.888Z,19.70
2019-02-19T01:03:33.564Z,19.53
2019-02-19T01:06:06.845Z,19.97
2019-02-19T01:08:57.159Z,19.50
2019-02-19T01:11:30.993Z,19.17
2019-02-19T01:14:05.669Z,20.03
2019-02-19T01:16:38.771Z,18.63
2019-02-19T01:19:30.363Z,18.30
2019-02-19T01:22:15.714Z,19.17
2019-02-19T01:24:47.770Z,19.03
2019-02-19T01:27:22.296Z,19.20
2019-02-19T01:29:56.244Z,19.13
2019-02-19T01:32:48.498Z,19.47
2019-02-19T01:35:22.278Z,19.73
2019-02-19T01:37:55.798Z,19.47
2019-02-19T01:40:30.626Z,19.00
2019-02-19T01:43:15.590Z,19.53
2019-02-19T01:46:09.772Z,19.20
2019-02-19T01:48:43.517Z,19.60
2019-02-19T01:51:17.508Z,20.17
2019-02-19T01:53:51.214Z,20.03
2019-02-19T01:56:43.107Z,19.53
2019-02-19T01:59:34.010Z,19.00
2019-02-19T02:02:07.264Z,19.60
2019-02-19T02:04:41.695Z,18.83
2019-02-19T02:07:33.698Z,19.57
2019-02-19T02:10:21.429Z,18.07
2019-02-19T02:12:54.895Z,19.13
2019-02-19T02:15:28.609Z,19.37
2019-02-19T02:18:02.051Z,19.70
2019-02-19T02:20:35.553Z,18.47
2019-02-19T02:23:09.351Z,18.33
2019-02-19T02:25:43.094Z,18.90
2019-02-19T02:28:17.248Z,19.10
2019-02-19T02:30:51.949Z,19.47
2019-02-19T02:33:37.724Z,20.20
2019-02-19T02:36:11.595Z,18.33
2019-02-19T02:38:45.290Z,18.73
2019-02-19T02:41:19.138Z,18.60
2019-02-19T02:43:53.432Z,17.90
2019-02-19T02:46:39.385Z,18.17
2019-02-19T02:49:13.209Z,17.43
2019-02-19T02:51:47.417Z,18.47
2019-02-19T02:54:38.989Z,17.70
2019-02-19T02:57:26.857Z,17.60
2019-02-19T03:00:00.339Z,17.77
2019-02-19T03:02:34.402Z,17.27
2019-02-19T03:05:07.981Z,16.67
2019-02-19T03:07:49.741Z,16.30
2019-02-19T03:10:23.733Z,17.30
2019-02-19T03:13:16.502Z,16.60
2019-02-19T03:15:50.535Z,16.30
2019-02-19T03:18:24.713Z,16.20
2019-02-19T03:21:17.414Z,16.30
2019-02-19T03:24:02.773Z,16.57
2019-02-19T03:26:48.380Z,16.70
2019-02-19T03:29:33.690Z,16.43
2019-02-19T03:32:18.798Z,17.07
2019-02-19T03:35:11.372Z,16.27
2019-02-19T03:37:45.247Z,18.57
2019-02-19T03:40:19.230Z,17.43
2019-02-19T03:42:53.022Z,17.90
2019-02-19T03:45:38.442Z,19.20
2019-02-19T03:48:23.818Z,19.53
2019-02-19T03:51:15.622Z,19.50
2019-02-19T03:53:50.182Z,20.47
2019-02-19T03:56:49.280Z,20.70
2019-02-19T03:59:23.034Z,21.10
2019-02-19T04:01:56.755Z,21.73
2019-02-19T04:04:31.846Z,21.53
2019-02-19T04:07:05.045Z,21.97
2019-02-19T04:09:38.764Z,20.87
2019-02-19T04:12:13.149Z,22.50
2019-02-19T04:14:46.617Z,22.67
2019-02-19T04:17:20.232Z,22.40
2019-02-19T04:19:53.996Z,23.77
2019-02-19T04:22:28.074Z,24.13
2019-02-19T04:25:21.280Z,24.47
2019-02-19T04:27:55.291Z,25.47
2019-02-19T04:30:30.455Z,26.20
2019-02-19T04:33:24.716Z,26.50
2019-02-19T04:36:16.542Z,29.50
2019-02-19T04:38:50.685Z,30.70
2019-02-19T04:41:24.798Z,31.87
2019-02-19T04:44:17.093Z,31.43
2019-02-19T04:47:08.645Z,31.97
2019-02-19T04:49:54.946Z,33.00
2019-02-19T04:52:30.072Z,33.50
2019-02-19T05:05:49.371Z,35.57
2019-02-19T05:19:12.972Z,37.17
2019-02-19T05:21:47.041Z,35.47
2019-02-19T05:24:36.009Z,39.30
2019-02-19T05:27:21.645Z,37.90
2019-02-19T05:30:07.878Z,38.83
2019-02-19T05:32:55.072Z,37.20
2019-02-19T05:35:29.164Z,40.37
2019-02-19T05:38:02.939Z,39.10
2019-02-19T05:40:36.814Z,38.57
2019-02-19T05:43:22.378Z,38.83
2019-02-19T05:45:56.238Z,40.67
2019-02-19T05:48:41.797Z,40.57
2019-02-19T05:51:17.268Z,41.27
2019-02-19T05:54:03.887Z,41.97
2019-02-19T05:56:37.641Z,41.23
2019-02-19T05:59:29.275Z,40.47
2019-02-19T06:02:03.778Z,42.17
2019-02-19T06:04:55.146Z,41.60
2019-02-19T06:07:40.684Z,41.47
2019-02-19T06:10:14.455Z,42.93
2019-02-19T06:12:48.756Z,42.17
2019-02-19T06:15:22.516Z,43.87
2019-02-19T06:17:56.646Z,43.43
2019-02-19T06:20:30.648Z,40.60
2019-02-19T06:23:15.399Z,42.87
2019-02-19T06:26:07.371Z,41.53
2019-02-19T06:28:59.170Z,43.40
2019-02-19T06:31:50.255Z,41.33
2019-02-19T06:34:43.733Z,42.17
2019-02-19T06:37:36.712Z,41.93
2019-02-19T06:40:23.371Z,42.63
2019-02-19T06:42:59.028Z,40.07
2019-02-19T06:56:07.618Z,37.63
2019-02-19T06:58:56.012Z,37.47
2019-02-19T07:02:02.704Z,37.40
2019-02-19T07:04:39.818Z,37.03
2019-02-19T07:07:25.892Z,35.43
2019-02-19T07:10:16.860Z,35.07
2019-02-19T07:13:05.448Z,32.83
2019-02-19T07:26:21.501Z,29.30
2019-02-19T07:28:55.365Z,28.43
2019-02-19T07:31:29.926Z,28.80
2019-02-19T07:34:22.464Z,27.73
2019-02-19T07:36:56.606Z,26.70
2019-02-19T07:39:30.372Z,26.10
2019-02-19T07:42:05.845Z,25.90
2019-02-19T07:44:58.713Z,25.13
2019-02-19T07:47:32.614Z,26.33
2019-02-19T07:50:07.117Z,26.10
2019-02-19T07:52:59.074Z,26.53
2019-02-19T07:55:33.032Z,25.57
2019-02-19T08:08:43.014Z,25.80
2019-02-19T08:11:29.323Z,25.53
2019-02-19T08:14:03.364Z,26.60
2019-02-19T08:16:37.507Z,26.43
2019-02-19T08:19:25.827Z,26.03
2019-02-19T08:22:18.152Z,26.63
2019-02-19T08:35:36.630Z,24.70
2019-02-19T08:38:28.010Z,24.67
2019-02-19T08:41:02.414Z,24.20
2019-02-19T08:43:36.161Z,24.23
2019-02-19T08:46:24.830Z,22.83
2019-02-19T08:49:18.842Z,23.27
2019-02-19T08:52:09.284Z,24.97
2019-02-19T08:55:05.076Z,23.97
2019-02-19T08:58:05.812Z,23.40
2019-02-19T09:00:43.844Z,22.57
2019-02-19T09:03:17.542Z,22.53
2019-02-19T09:05:50.687Z,23.90
2019-02-19T09:08:40.902Z,22.70
2019-02-19T09:11:15.072Z,21.63
2019-02-19T09:14:06.958Z,21.80
2019-02-19T09:16:52.427Z,21.77
2019-02-19T09:19:42.962Z,21.80
2019-02-19T09:22:17.612Z,22.40
2019-02-19T09:24:51.360Z,22.67
2019-02-19T09:27:25.126Z,22.03
2019-02-19T09:29:58.656Z,20.40
2019-02-19T09:32:32.051Z,21.43
2019-02-19T09:35:06.419Z,21.97
2019-02-19T09:37:50.899Z,22.83
2019-02-19T10:07:21.845Z,19.20
2019-02-19T10:09:55.079Z,19.20
2019-02-19T10:12:29.176Z,20.30
2019-02-19T10:15:21.386Z,20.70
2019-02-19T10:17:54.931Z,18.87
2019-02-19T10:31:11.804Z,19.70
2019-02-19T10:33:44.942Z,19.70
2019-02-19T10:36:18.383Z,20.27
2019-02-19T10:38:52.204Z,20.70
2019-02-19T10:41:25.575Z,19.87
2019-02-19T10:43:59.001Z,20.63
2019-02-19T10:46:33.029Z,20.30
2019-02-19T10:49:06.153Z,19.90
2019-02-19T10:51:51.887Z,21.03
2019-02-19T10:54:25.693Z,21.17
2019-02-19T10:56:59.595Z,20.83
2019-02-19T11:18:28.152Z,19.80
2019-02-19T11:20:56.975Z,18.33
2019-02-19T11:23:30.897Z,18.27
2019-02-19T11:26:05.303Z,18.27
2019-02-19T11:28:41.084Z,17.00
2019-02-19T11:31:14.914Z,16.07
2019-02-19T11:33:48.691Z,16.20
2019-02-19T11:36:22.181Z,16.27
2019-02-19T11:38:55.949Z,15.53
2019-02-19T11:57:41.055Z,15.60
2019-02-19T12:00:17.724Z,15.73
2019-02-19T12:02:51.156Z,15.40
2019-02-19T12:05:24.583Z,15.20
2019-02-19T12:07:58.372Z,15.43
2019-02-19T12:10:32.146Z,14.23
2019-02-19T12:13:05.385Z,14.27
2019-02-19T12:15:39.172Z,14.63
2019-02-19T12:18:12.797Z,14.87
2019-02-19T12:20:46.473Z,14.60
2019-02-19T12:23:20.524Z,14.37
2019-02-19T12:26:05.097Z,14.70
2019-02-19T12:28:38.891Z,14.70
2019-02-19T13:00:23.944Z,15.67
2019-02-19T13:02:57.683Z,19.37
2019-02-19T13:05:31.145Z,16.23
2019-02-19T13:08:04.897Z,15.10
2019-02-19T13:10:38.672Z,14.97
2019-02-19T13:13:12.462Z,14.20
2019-02-19T13:15:45.898Z,13.37
2019-02-19T13:18:19.706Z,13.47
2019-02-19T13:20:53.127Z,13.13
2019-02-19T13:23:27.022Z,13.60
2019-02-19T13:26:01.252Z,12.73
2019-02-19T13:55:41.464Z,8.80
2019-02-19T13:58:15.694Z,9.20
2019-02-19T14:17:02.774Z,8.87
2019-02-19T14:22:57.003Z,8.23
2019-02-19T14:25:52.540Z,7.93
2019-02-19T14:28:45.196Z,7.37
2019-02-19T14:31:36.580Z,8.13
2019-02-19T14:34:27.445Z,8.00
2019-02-19T14:37:32.067Z,8.30
2019-02-19T14:40:23.157Z,8.17
2019-02-19T14:43:10.579Z,8.57
2019-02-19T15:02:09.086Z,8.23
2019-02-19T15:05:00.276Z,8.07
2019-02-19T15:07:50.892Z,7.47
2019-02-19T15:11:18.039Z,9.17
2019-02-19T15:14:52.215Z,9.40
2019-02-19T15:18:11.389Z,10.90
2019-02-19T15:21:11.120Z,9.50
2019-02-19T15:37:20.205Z,9.60
2019-02-19T15:40:12.953Z,9.00
2019-02-19T15:43:23.889Z,9.73
2019-02-19T15:46:16.357Z,8.30
2019-02-19T15:49:07.750Z,9.93
2019-02-19T15:51:54.903Z,9.03
2019-02-19T15:55:04.513Z,9.33
2019-02-19T15:58:04.869Z,9.07
2019-02-19T16:00:43.269Z,8.90
2019-02-19T16:03:24.962Z,8.70
2019-02-19T16:06:17.287Z,8.60
2019-02-19T16:09:23.077Z,9.30
2019-02-19T16:12:07.224Z,8.87
2019-02-19T16:14:58.574Z,8.07
2019-02-19T16:17:49.996Z,8.53
2019-02-19T16:21:00.159Z,8.63
2019-02-19T16:23:40.031Z,7.77
2019-02-19T16:26:44.432Z,8.43
2019-02-19T16:29:35.730Z,8.53
2019-02-19T16:32:37.742Z,8.63
2019-02-19T16:35:28.773Z,8.23
2019-02-19T16:38:27.063Z,7.93
2019-02-19T16:41:18.022Z,9.83
2019-02-19T16:44:01.942Z,9.83
2019-02-19T16:57:48.293Z,7.90
2019-02-19T17:01:05.531Z,7.83
2019-02-19T17:03:46.562Z,7.87
2019-02-19T17:07:19.721Z,8.87
2019-02-19T17:10:37.696Z,9.47
2019-02-19T17:13:30.557Z,9.17
2019-02-19T17:16:17.898Z,9.30
2019-02-19T17:19:54.959Z,9.73
2019-02-19T17:23:05.981Z,10.43
2019-02-19T17:36:50.738Z,8.93
2019-02-19T17:39:43.231Z,10.13
2019-02-19T17:42:35.940Z,9.23
2019-02-19T17:45:37.223Z,9.50
2019-02-19T17:48:28.802Z,9.47
2019-02-19T17:52:04.415Z,9.30
2019-02-19T17:55:02.694Z,8.57
2019-02-19T17:57:55.712Z,8.90
2019-02-19T18:01:12.289Z,8.67
2019-02-19T18:04:11.051Z,8.17
2019-02-19T18:07:23.259Z,8.93
2019-02-19T18:10:30.942Z,9.37
2019-02-19T18:13:26.447Z,9.30
2019-02-19T18:16:25.310Z,8.87
2019-02-19T18:18:59.052Z,9.00
2019-02-19T18:21:32.563Z,8.53
2019-02-19T18:24:06.433Z,9.80
2019-02-19T18:26:40.675Z,9.70
2019-02-19T18:29:15.713Z,9.40
2019-02-19T18:31:49.701Z,10.33
2019-02-19T18:34:35.064Z,9.93
2019-02-19T18:37:26.534Z,9.90
2019-02-19T18:39:59.968Z,9.93
2019-02-19T18:42:34.022Z,9.47
2019-02-19T18:45:20.292Z,10.13
2019-02-19T18:48:11.953Z,10.00
2019-02-19T18:50:58.606Z,9.40
2019-02-19T18:53:31.580Z,10.03
2019-02-19T18:56:05.615Z,9.80
2019-02-19T19:28:02.121Z,11.47
2019-02-19T19:30:35.929Z,11.13
2019-02-19T19:33:09.642Z,11.23
2019-02-19T19:35:43.724Z,11.20
2019-02-19T19:38:17.292Z,11.60
2019-02-19T19:40:50.983Z,11.47
2019-02-19T19:43:24.537Z,11.47
2019-02-19T19:45:58.986Z,12.10
2019-02-19T19:48:33.584Z,11.53
2019-02-19T20:15:06.340Z,11.80
2019-02-19T20:40:19.998Z,12.67
2019-02-19T21:19:51.528Z,13.77
2019-02-19T21:22:43.259Z,13.87
2019-02-19T21:35:58.943Z,13.97
2019-02-19T21:38:32.827Z,12.87
2019-02-19T21:41:08.075Z,13.00
2019-02-19T21:43:56.508Z,13.63
